Time;durP1;ratioP1;P1;durP2;ratioP2;P2;SDS_P1;SDS_P2;PMS_P1;PMS_P2;Temp;Humidity;BMP_temperature;BMP_pressure;BME280_temperature;BME280_humidity;BME280_pressure;Samples;Min_cycle;Max_cycle;Signal;HPM_P1;HPM_P2
2022/01/13 00:01:41;;;;;;;47.20;24.33;;;;;;;1.40;60.39;98797.00;5066266;28;20421;-70
2022/01/13 00:04:10;;;;;;;36.17;22.67;;;;;;;1.47;60.70;98791.56;5069564;28;20474;-69
2022/01/13 00:06:36;;;;;;;45.43;23.40;;;;;;;1.48;60.38;98792.41;5071819;28;20542;-70
2022/01/13 00:09:03;;;;;;;38.60;23.30;;;;;;;1.62;60.35;98786.72;5071399;28;20570;-71
2022/01/13 00:11:28;;;;;;;38.87;22.77;;;;;;;1.71;59.93;98783.78;5071357;28;20491;-70
2022/01/13 00:14:21;;;;;;;43.73;23.83;;;;;;;1.84;59.75;98784.19;5062624;28;20833;-70
2022/01/13 00:17:06;;;;;;;40.90;24.40;;;;;;;1.87;60.02;98785.78;5059736;28;20182;-70
2022/01/13 00:19:48;;;;;;;37.17;22.70;;;;;;;2.01;59.73;98782.69;5056536;28;20511;-70
2022/01/13 00:25:00;;;;;;;35.97;22.30;;;;;;;2.05;59.26;98784.25;5071256;28;20445;-70
2022/01/13 00:27:28;;;;;;;35.23;22.53;;;;;;;2.14;59.34;98783.91;5071324;28;20488;-70
2022/01/13 00:29:56;;;;;;;40.30;23.90;;;;;;;2.14;59.57;98791.66;5052034;28;20428;-71
2022/01/13 00:32:25;;;;;;;39.07;23.57;;;;;;;1.81;60.18;98794.63;5070251;28;20470;-70
2022/01/13 00:34:50;;;;;;;40.17;23.87;;;;;;;2.03;59.61;98791.22;5063992;28;21001;-71
2022/01/13 00:37:16;;;;;;;40.77;23.27;;;;;;;2.07;59.29;98795.38;5070755;28;20518;-70
2022/01/13 00:39:41;;;;;;;38.63;21.23;;;;;;;2.14;59.24;98795.06;5071099;28;20542;-70
2022/01/13 00:42:08;;;;;;;39.97;24.20;;;;;;;2.04;59.51;98786.00;5071086;28;20227;-70
2022/01/13 00:44:37;;;;;;;40.30;23.53;;;;;;;2.05;59.65;98795.44;5071017;28;20225;-71
2022/01/13 00:47:05;;;;;;;45.93;25.20;;;;;;;1.97;59.49;98800.06;5064264;28;20469;-70
2022/01/13 00:49:30;;;;;;;41.47;23.67;;;;;;;2.04;59.57;98803.25;5070003;28;20425;-71
2022/01/13 00:51:56;;;;;;;41.53;23.20;;;;;;;2.02;59.58;98811.06;5071506;28;20435;-70
2022/01/13 00:54:22;;;;;;;36.47;23.27;;;;;;;1.96;59.57;98817.31;5071133;28;20201;-70
2022/01/13 00:56:48;;;;;;;37.70;23.17;;;;;;;2.03;59.72;98815.34;5071117;28;20186;-70
2022/01/13 00:59:14;;;;;;;40.00;23.17;;;;;;;2.11;59.68;98822.81;5070594;28;20919;-70
2022/01/13 01:01:45;;;;;;;41.60;23.70;;;;;;;2.03;59.98;98815.34;5066645;28;20233;-70
2022/01/13 01:04:10;;;;;;;38.03;23.30;;;;;;;2.16;59.83;98818.28;5068319;28;20473;-69
2022/01/13 01:06:37;;;;;;;38.33;21.80;;;;;;;2.18;59.91;98815.66;5069649;28;20464;-70
2022/01/13 01:09:03;;;;;;;42.63;25.57;;;;;;;2.24;59.66;98821.44;5061592;28;20654;-70
2022/01/13 01:11:29;;;;;;;37.50;23.77;;;;;;;2.14;59.98;98822.72;5071488;28;20425;-70
2022/01/13 01:13:56;;;;;;;39.70;22.80;;;;;;;2.20;59.99;98819.88;5046605;28;20539;-70
2022/01/13 01:16:22;;;;;;;38.97;23.77;;;;;;;2.28;59.61;98828.16;5063736;28;20194;-71
2022/01/13 01:18:54;;;;;;;44.23;24.57;;;;;;;2.21;60.11;98829.31;5070999;28;20985;-70
2022/01/13 01:29:10;;;;;;;36.90;23.40;;;;;;;2.43;59.40;98836.22;5087042;28;20455;-69
2022/01/13 01:31:38;;;;;;;44.10;26.57;;;;;;;2.52;59.46;98843.59;5087359;28;20435;-72
2022/01/13 01:36:31;;;;;;;39.27;24.80;;;;;;;2.58;58.94;98840.78;5090949;28;20425;-71
2022/01/13 01:38:58;;;;;;;39.20;23.63;;;;;;;2.59;59.08;98837.31;5081837;28;20476;-70
2022/01/13 01:41:24;;;;;;;41.60;24.20;;;;;;;2.60;59.24;98839.00;5061029;28;20769;-70
2022/01/13 01:43:51;;;;;;;39.20;22.33;;;;;;;2.60;58.77;98833.81;5075612;28;20421;-71
2022/01/13 01:46:17;;;;;;;37.37;23.70;;;;;;;2.56;59.28;98840.00;5068423;28;20229;-71
2022/01/13 01:48:43;;;;;;;42.23;22.43;;;;;;;2.52;59.20;98835.03;5076594;28;20421;-71
2022/01/13 01:51:08;;;;;;;39.30;22.67;;;;;;;2.50;58.69;98834.22;5074678;28;20690;-69
2022/01/13 01:53:34;;;;;;;37.47;22.30;;;;;;;2.36;59.23;98834.78;5075100;28;20205;-71
2022/01/13 01:56:00;;;;;;;38.70;23.30;;;;;;;2.55;58.83;98840.91;5073182;28;20214;-71
2022/01/13 01:58:26;;;;;;;41.90;23.27;;;;;;;2.57;58.94;98839.09;5072247;28;20202;-71
2022/01/13 02:00:54;;;;;;;40.10;24.53;;;;;;;2.65;58.63;98836.22;5075261;28;20190;-70
2022/01/13 02:03:20;;;;;;;42.07;24.43;;;;;;;2.25;59.60;98840.38;5060202;28;20417;-71
2022/01/13 02:05:47;;;;;;;40.90;24.53;;;;;;;2.40;59.67;98833.75;5073349;28;20452;-71
2022/01/13 02:08:12;;;;;;;42.17;24.80;;;;;;;2.36;59.64;98827.03;5077489;28;20186;-69
2022/01/13 02:10:38;;;;;;;39.67;25.93;;;;;;;2.55;59.16;98829.72;5077241;28;20437;-69
2022/01/13 02:13:07;;;;;;;44.53;25.43;;;;;;;2.66;58.55;98826.69;5068392;28;20273;-71
2022/01/13 02:15:48;;;;;;;43.67;25.60;;;;;;;2.46;58.57;98830.94;5068027;28;20215;-71
2022/01/13 02:18:14;;;;;;;39.27;24.60;;;;;;;2.37;58.71;98826.13;5073661;28;20758;-70
2022/01/13 02:20:52;;;;;;;41.87;24.97;;;;;;;2.52;59.17;98822.91;5075190;28;20501;-71
2022/01/13 02:23:36;;;;;;;41.33;24.30;;;;;;;2.63;58.90;98811.28;5070720;28;20790;-69
2022/01/13 02:26:02;;;;;;;43.07;24.10;;;;;;;2.49;58.67;98807.53;5074383;28;20445;-70
2022/01/13 02:28:28;;;;;;;48.77;26.40;;;;;;;2.47;58.93;98806.72;5066505;28;20459;-71
2022/01/13 02:30:54;;;;;;;37.17;24.27;;;;;;;2.49;58.58;98799.75;5074343;28;20935;-72
2022/01/13 02:33:20;;;;;;;44.00;25.33;;;;;;;2.52;58.80;98799.59;5073977;28;20470;-72
2022/01/13 02:35:45;;;;;;;40.03;24.97;;;;;;;2.58;58.80;98798.53;5074532;28;20202;-70
2022/01/13 02:38:12;;;;;;;45.33;25.10;;;;;;;2.53;59.08;98790.94;5073604;28;20759;-70
2022/01/13 02:40:38;;;;;;;40.07;25.00;;;;;;;2.52;59.23;98797.00;5072817;28;20210;-70
2022/01/13 02:43:04;;;;;;;38.40;24.57;;;;;;;2.40;59.24;98800.09;5074130;28;20463;-71
2022/01/13 02:45:36;;;;;;;41.30;24.33;;;;;;;2.45;59.26;98793.88;5074196;28;20444;-70
2022/01/13 02:48:27;;;;;;;39.43;23.30;;;;;;;2.55;59.53;98783.97;5083211;28;20452;-71
2022/01/13 02:50:54;;;;;;;39.77;23.67;;;;;;;2.51;59.19;98792.78;5087041;28;20938;-71
2022/01/13 02:53:19;;;;;;;39.10;24.40;;;;;;;2.33;59.93;98793.50;5087712;28;20430;-71
2022/01/13 02:55:45;;;;;;;39.93;24.23;;;;;;;2.61;59.39;98794.06;5086160;28;20476;-70
2022/01/13 02:58:15;;;;;;;41.83;25.10;;;;;;;2.44;59.39;98791.31;5083909;28;20189;-71
2022/01/13 03:00:41;;;;;;;40.63;21.97;;;;;;;2.54;59.45;98781.44;5072229;28;20186;-70
2022/01/13 03:03:07;;;;;;;38.83;24.33;;;;;;;2.49;59.67;98781.63;5066913;28;20436;-71
2022/01/13 03:05:37;;;;;;;42.37;24.20;;;;;;;2.57;59.37;98776.97;5073308;28;20440;-71
2022/01/13 03:08:03;;;;;;;39.80;23.80;;;;;;;2.38;59.81;98770.88;5073336;28;20569;-70
2022/01/13 03:10:29;;;;;;;44.23;25.60;;;;;;;2.52;59.68;98780.66;5050954;28;20444;-71
2022/01/13 03:12:56;;;;;;;43.13;24.93;;;;;;;2.48;59.51;98779.94;5068730;28;20432;-71
2022/01/13 03:15:22;;;;;;;44.57;25.70;;;;;;;2.39;60.08;98780.34;5063368;28;20680;-70
2022/01/13 03:17:47;;;;;;;41.30;26.17;;;;;;;2.65;59.27;98786.19;5067569;28;20409;-70
2022/01/13 03:20:13;;;;;;;42.83;24.47;;;;;;;2.46;59.88;98789.50;5063606;28;20174;-71
2022/01/13 03:22:39;;;;;;;37.77;24.50;;;;;;;2.20;60.11;98783.63;5069528;28;20186;-71
2022/01/13 03:25:05;;;;;;;39.30;24.60;;;;;;;2.51;59.75;98785.00;5072386;28;20229;-71
2022/01/13 03:27:35;;;;;;;43.07;26.13;;;;;;;2.44;60.12;98779.25;5072312;28;20239;-72
2022/01/13 03:30:06;;;;;;;38.63;24.50;;;;;;;2.12;60.79;98780.53;5071702;28;21096;-70
2022/01/13 03:32:36;;;;;;;43.00;25.27;;;;;;;2.50;60.56;98775.56;5072822;28;20460;-69
2022/01/13 03:35:02;;;;;;;44.40;25.10;;;;;;;2.68;60.08;98763.59;5071247;28;20566;-70
2022/01/13 03:37:29;;;;;;;39.73;25.60;;;;;;;2.88;59.87;98760.16;5071308;28;20478;-71
2022/01/13 03:39:54;;;;;;;40.67;25.30;;;;;;;3.03;59.55;98755.19;5071893;28;20456;-71
2022/01/13 03:42:21;;;;;;;39.50;24.63;;;;;;;3.15;58.87;98756.44;5072151;28;20508;-71
2022/01/13 03:44:46;;;;;;;40.10;24.03;;;;;;;3.18;58.67;98762.31;5072145;28;20206;-70
2022/01/13 03:47:13;;;;;;;41.23;24.70;;;;;;;3.22;58.38;98761.28;5064133;28;20464;-71
2022/01/13 03:49:39;;;;;;;40.40;23.23;;;;;;;3.13;58.74;98758.22;5065680;28;20709;-70
2022/01/13 03:52:23;;;;;;;39.70;25.37;;;;;;;3.06;58.53;98757.66;5071065;28;20424;-71
2022/01/13 03:55:13;;;;;;;43.47;23.10;;;;;;;2.96;59.12;98762.38;5071821;28;20301;-71
2022/01/13 03:58:01;;;;;;;40.70;22.70;;;;;;;2.95;59.03;98759.88;5071328;28;20413;-71
2022/01/13 04:01:08;;;;;;;39.30;22.13;;;;;;;2.98;59.54;98754.56;5056171;28;20425;-70
2022/01/13 04:03:34;;;;;;;42.17;24.03;;;;;;;2.93;59.09;98744.41;5039707;28;20871;-70
2022/01/13 04:06:04;;;;;;;44.23;23.97;;;;;;;2.83;59.30;98756.91;5071419;28;20448;-71
2022/01/13 04:08:30;;;;;;;36.07;22.30;;;;;;;2.96;59.42;98752.03;5071070;28;20691;-72
2022/01/13 04:11:12;;;;;;;37.60;23.50;;;;;;;2.95;59.29;98755.56;5070928;28;20472;-71
2022/01/13 04:13:48;;;;;;;39.90;22.20;;;;;;;3.03;59.47;98757.78;5053313;28;20421;-71
2022/01/13 04:16:17;;;;;;;37.37;22.13;;;;;;;3.15;59.00;98756.44;5065740;28;20515;-70
2022/01/13 04:18:46;;;;;;;38.43;23.53;;;;;;;3.21;59.24;98751.81;5071761;28;20784;-70
2022/01/13 04:21:12;;;;;;;36.50;20.87;;;;;;;3.24;58.52;98750.81;5071655;28;20413;-69
2022/01/13 04:23:38;;;;;;;34.67;22.23;;;;;;;3.30;58.48;98747.13;5067659;28;20947;-72
2022/01/13 04:26:05;;;;;;;36.13;23.37;;;;;;;3.11;59.38;98749.69;5072117;28;20464;-71
2022/01/13 04:28:32;;;;;;;45.57;23.30;;;;;;;3.25;59.40;98754.28;5070603;28;20565;-71
2022/01/13 04:31:00;;;;;;;34.87;22.20;;;;;;;3.37;59.04;98753.72;5070779;28;20424;-69
2022/01/13 04:33:31;;;;;;;37.40;22.60;;;;;;;3.33;58.87;98757.34;5069870;28;20420;-71
2022/01/13 04:35:57;;;;;;;35.30;20.87;;;;;;;3.40;59.18;98760.50;5063183;28;20449;-72
2022/01/13 04:38:23;;;;;;;37.33;22.80;;;;;;;3.50;59.05;98754.00;5058204;28;20417;-70
2022/01/13 04:40:55;;;;;;;44.13;23.03;;;;;;;3.61;58.76;98761.28;5061988;28;20430;-71
2022/01/13 04:43:21;;;;;;;33.30;21.00;;;;;;;3.67;58.54;98759.25;5063722;28;20417;-71
2022/01/13 04:45:50;;;;;;;34.40;20.90;;;;;;;3.66;58.19;98756.72;5065237;28;20449;-71
2022/01/13 04:48:16;;;;;;;34.83;21.70;;;;;;;3.71;58.78;98754.78;5051513;28;20402;-71
2022/01/13 04:50:42;;;;;;;38.37;21.77;;;;;;;3.74;58.21;98756.38;5050051;28;20912;-71
2022/01/13 04:53:08;;;;;;;39.57;22.67;;;;;;;3.60;58.86;98759.63;5060055;28;20410;-71
2022/01/13 04:55:36;;;;;;;35.60;21.67;;;;;;;3.65;58.36;98770.63;5057015;28;20527;-71
2022/01/13 04:58:02;;;;;;;33.43;20.80;;;;;;;3.65;58.07;98774.06;5053987;28;20179;-72
2022/01/13 05:00:29;;;;;;;33.60;21.83;;;;;;;3.54;58.71;98776.28;5051869;28;20420;-71
2022/01/13 05:02:55;;;;;;;37.80;22.90;;;;;;;3.57;58.55;98778.75;5049516;28;20454;-71
2022/01/13 05:05:21;;;;;;;34.67;21.63;;;;;;;3.46;58.84;98787.00;5055056;28;20440;-71
2022/01/13 05:07:47;;;;;;;39.17;23.80;;;;;;;3.41;59.58;98775.16;5061889;28;20294;-70
2022/01/13 05:10:13;;;;;;;34.23;22.03;;;;;;;3.58;58.96;98775.25;5055548;28;20928;-70
2022/01/13 05:12:44;;;;;;;33.60;21.80;;;;;;;3.51;58.65;98779.00;5068280;28;20425;-71
2022/01/13 05:15:19;;;;;;;36.93;23.53;;;;;;;3.48;58.38;98789.53;5056566;28;20862;-71
2022/01/13 05:20:18;;;;;;;39.00;23.87;;;;;;;3.35;58.39;98787.47;5063049;28;20467;-71
2022/01/13 05:22:44;;;;;;;41.00;24.43;;;;;;;3.36;58.60;98777.97;5057949;28;20421;-70
2022/01/13 05:25:10;;;;;;;42.37;24.50;;;;;;;3.34;59.20;98772.00;5053564;28;20916;-71
2022/01/13 05:27:36;;;;;;;41.53;22.90;;;;;;;3.36;58.55;98780.56;5054401;28;20199;-72
2022/01/13 05:30:04;;;;;;;39.27;23.90;;;;;;;3.40;58.83;98786.44;5058215;28;20455;-70
2022/01/13 05:32:30;;;;;;;39.83;24.33;;;;;;;3.36;58.77;98786.56;5053558;28;20199;-71
2022/01/13 05:34:56;;;;;;;39.40;24.90;;;;;;;3.26;58.99;98789.66;5054755;28;20472;-71
2022/01/13 05:37:21;;;;;;;39.87;24.40;;;;;;;3.02;59.70;98784.63;5053973;28;20182;-71
2022/01/13 05:39:47;;;;;;;40.20;24.60;;;;;;;3.11;59.22;98788.53;5054683;28;20688;-69
2022/01/13 05:42:12;;;;;;;41.43;26.10;;;;;;;2.96;59.69;98793.47;5053407;28;20182;-71
2022/01/13 05:44:38;;;;;;;41.27;25.40;;;;;;;2.95;59.76;98801.31;5053946;28;20666;-71
2022/01/13 05:47:10;;;;;;;42.77;26.40;;;;;;;2.78;59.88;98800.28;5052842;28;20294;-70
2022/01/13 05:49:38;;;;;;;39.43;25.20;;;;;;;2.70;60.12;98799.75;5052926;28;20249;-70
2022/01/13 05:52:04;;;;;;;41.17;25.40;;;;;;;2.86;59.54;98793.03;5054147;28;20425;-71
2022/01/13 05:54:30;;;;;;;43.53;24.63;;;;;;;2.77;59.63;98798.63;5054157;28;20437;-69
2022/01/13 05:56:55;;;;;;;45.17;25.50;;;;;;;2.80;60.18;98793.28;5054110;28;20475;-70
2022/01/13 05:59:22;;;;;;;41.97;25.07;;;;;;;2.89;59.69;98797.25;5053555;28;20262;-71
2022/01/13 06:01:48;;;;;;;40.37;25.47;;;;;;;2.55;60.01;98804.66;5051396;28;20218;-69
2022/01/13 06:04:14;;;;;;;39.60;25.03;;;;;;;2.59;60.38;98801.06;5052126;28;21014;-71
2022/01/13 06:06:39;;;;;;;41.27;26.03;;;;;;;2.68;59.91;98798.97;5065199;28;20285;-71
2022/01/13 06:09:05;;;;;;;39.07;24.90;;;;;;;2.57;60.27;98802.84;5053653;28;20191;-70
2022/01/13 06:11:38;;;;;;;45.23;25.03;;;;;;;2.60;60.54;98802.75;5052960;28;20229;-70
2022/01/13 06:14:04;;;;;;;38.90;25.47;;;;;;;2.82;60.26;98804.44;5054096;28;20183;-70
2022/01/13 06:16:29;;;;;;;41.00;24.50;;;;;;;2.70;60.01;98797.19;5053868;28;20445;-70
2022/01/13 06:18:55;;;;;;;39.17;23.37;;;;;;;2.89;60.02;98800.69;5062525;28;20798;-70
2022/01/13 06:21:20;;;;;;;39.93;24.50;;;;;;;2.91;59.58;98796.28;5053083;28;20225;-70
2022/01/13 06:23:46;;;;;;;48.23;26.37;;;;;;;3.01;59.85;98788.94;5060336;28;20553;-71
2022/01/13 06:26:12;;;;;;;39.83;23.90;;;;;;;3.06;59.71;98796.53;5063730;28;20209;-70
2022/01/13 06:28:37;;;;;;;42.13;24.40;;;;;;;3.08;59.54;98794.72;5054276;28;20636;-71
2022/01/13 06:31:03;;;;;;;39.13;23.67;;;;;;;3.16;59.59;98787.44;5053346;28;20190;-70
2022/01/13 06:33:29;;;;;;;37.07;24.10;;;;;;;3.12;59.14;98795.41;5052525;28;20187;-71
2022/01/13 06:35:55;;;;;;;41.80;24.80;;;;;;;3.12;59.88;98787.66;5051871;28;20210;-71
2022/01/13 06:38:21;;;;;;;40.10;25.77;;;;;;;3.05;59.62;98790.50;5050214;28;20187;-70
2022/01/13 06:40:49;;;;;;;41.10;25.43;;;;;;;3.10;59.37;98790.31;5053355;28;20920;-71
2022/01/13 06:43:14;;;;;;;45.73;24.63;;;;;;;2.88;60.12;98796.41;5052978;28;20203;-71
2022/01/13 06:45:41;;;;;;;41.87;24.23;;;;;;;2.98;60.42;98801.19;5061578;28;20544;-70
2022/01/13 06:48:07;;;;;;;44.83;25.70;;;;;;;3.09;60.05;98804.16;5066242;28;20229;-70
2022/01/13 06:50:33;;;;;;;42.53;24.73;;;;;;;3.13;59.97;98799.69;5065319;28;20424;-72
2022/01/13 06:52:58;;;;;;;43.90;24.97;;;;;;;3.13;59.72;98803.13;5064992;28;20476;-71
2022/01/13 06:55:24;;;;;;;41.13;25.70;;;;;;;3.20;59.84;98799.38;5065280;28;20432;-71
2022/01/13 06:57:50;;;;;;;42.00;25.77;;;;;;;3.23;59.77;98801.84;5072763;28;20182;-71
2022/01/13 07:00:16;;;;;;;41.93;25.87;;;;;;;3.26;59.72;98810.38;5073145;28;20413;-71
2022/01/13 07:02:42;;;;;;;46.20;26.03;;;;;;;3.20;60.19;98814.91;5065463;28;20303;-71
2022/01/13 07:05:08;;;;;;;43.80;24.80;;;;;;;3.07;59.59;98811.16;5073678;28;20206;-70
2022/01/13 07:07:35;;;;;;;45.90;26.67;;;;;;;2.84;60.10;98813.00;5069000;28;20194;-71
2022/01/13 07:10:01;;;;;;;44.80;25.60;;;;;;;2.93;60.13;98816.94;5073501;28;20428;-71
2022/01/13 07:12:27;;;;;;;40.57;25.20;;;;;;;2.85;60.44;98821.59;5065426;28;20548;-71
2022/01/13 07:14:52;;;;;;;40.43;24.40;;;;;;;2.71;60.61;98833.34;5072710;28;20439;-71
2022/01/13 07:17:18;;;;;;;44.60;24.17;;;;;;;2.60;60.65;98843.31;5070604;28;20489;-72
2022/01/13 07:19:47;;;;;;;39.87;24.43;;;;;;;2.55;61.00;98843.50;5072608;28;20182;-70
2022/01/13 07:22:16;;;;;;;43.23;25.60;;;;;;;2.61;60.39;98856.22;5068027;28;20177;-70
2022/01/13 07:24:42;;;;;;;39.23;24.67;;;;;;;2.49;60.77;98863.59;5072781;28;20481;-70
2022/01/13 07:27:07;;;;;;;40.63;23.10;;;;;;;2.66;60.40;98866.38;5071543;28;20989;-71
2022/01/13 07:29:33;;;;;;;49.83;25.40;;;;;;;2.23;61.95;98866.31;5073286;28;20232;-71
2022/01/13 07:31:59;;;;;;;51.83;26.10;;;;;;;2.06;62.62;98868.69;5064291;28;20183;-71
2022/01/13 07:34:25;;;;;;;41.93;25.17;;;;;;;2.02;62.41;98867.97;5064336;28;20170;-70
2022/01/13 07:36:50;;;;;;;41.37;24.17;;;;;;;1.96;62.75;98868.19;5064226;28;20437;-70
2022/01/13 07:39:16;;;;;;;43.33;25.77;;;;;;;1.98;62.47;98867.25;5071134;28;20261;-70
2022/01/13 07:41:42;;;;;;;42.87;26.30;;;;;;;2.04;61.94;98867.91;5073402;28;20182;-71
2022/01/13 07:44:08;;;;;;;40.27;24.40;;;;;;;2.00;61.97;98869.78;5073234;28;20181;-72
2022/01/13 07:46:34;;;;;;;45.23;26.20;;;;;;;2.12;61.96;98865.91;5068375;28;20506;-72
2022/01/13 07:49:00;;;;;;;41.10;24.73;;;;;;;2.14;61.80;98877.88;5052232;28;20429;-72
2022/01/13 07:51:26;;;;;;;46.10;26.17;;;;;;;2.14;61.71;98875.28;5052315;28;20416;-72
2022/01/13 07:53:52;;;;;;;40.77;25.13;;;;;;;2.10;61.46;98875.44;5068007;28;20629;-71
2022/01/13 07:56:17;;;;;;;38.37;23.07;;;;;;;2.10;61.94;98878.03;5062712;28;20454;-72
2022/01/13 07:58:44;;;;;;;47.50;26.30;;;;;;;2.14;61.57;98877.03;5070733;28;20177;-71
2022/01/13 08:01:10;;;;;;;44.97;26.93;;;;;;;2.17;61.51;98879.47;5071253;28;20178;-70
2022/01/13 08:03:35;;;;;;;42.67;25.90;;;;;;;2.25;61.54;98868.84;5064702;28;20424;-71
2022/01/13 08:06:04;;;;;;;38.77;24.40;;;;;;;2.32;61.09;98874.63;5069546;28;20855;-71
2022/01/13 08:08:29;;;;;;;43.43;26.20;;;;;;;2.34;61.02;98876.25;5070770;28;20182;-72
2022/01/13 08:10:55;;;;;;;49.03;27.30;;;;;;;2.38;61.16;98870.06;5071173;28;20432;-70
2022/01/13 08:13:20;;;;;;;45.63;26.33;;;;;;;2.37;60.91;98872.72;5071146;28;20228;-70
2022/01/13 08:15:50;;;;;;;44.93;27.20;;;;;;;2.45;60.34;98873.25;5070303;28;20221;-71
2022/01/13 08:21:00;;;;;;;54.40;24.73;;;;;;;2.47;60.34;98871.44;5071321;28;20852;-71
2022/01/13 08:23:25;;;;;;;40.70;25.57;;;;;;;2.40;60.30;98875.16;5067269;28;20417;-70
2022/01/13 08:25:53;;;;;;;43.00;25.20;;;;;;;2.37;60.50;98872.72;5063444;28;20229;-71
2022/01/13 08:28:18;;;;;;;44.73;25.43;;;;;;;2.46;60.53;98875.75;5067731;28;20203;-71
2022/01/13 08:30:44;;;;;;;43.33;27.10;;;;;;;2.48;59.84;98878.31;5065333;28;20511;-72
2022/01/13 08:33:10;;;;;;;42.27;25.87;;;;;;;2.40;60.07;98875.16;5069148;28;20189;-71
2022/01/13 08:35:35;;;;;;;38.93;23.93;;;;;;;2.42;60.38;98874.22;5069154;28;20657;-71
2022/01/13 08:38:06;;;;;;;44.90;25.40;;;;;;;2.55;59.91;98866.78;5069801;28;20178;-70
2022/01/13 08:40:34;;;;;;;41.10;25.13;;;;;;;2.65;59.88;98874.22;5069197;28;20633;-70
2022/01/13 08:43:02;;;;;;;52.40;26.73;;;;;;;2.75;59.53;98873.75;5052025;28;20519;-70
2022/01/13 08:45:28;;;;;;;40.20;25.33;;;;;;;2.78;59.32;98877.97;5028836;28;1070738;-72
2022/01/13 08:47:53;;;;;;;49.57;27.77;;;;;;;2.78;58.97;98872.78;5064139;28;20577;-70
2022/01/13 08:50:19;;;;;;;48.27;26.33;;;;;;;2.85;58.88;98871.66;5061614;28;20251;-70
2022/01/13 08:52:45;;;;;;;39.47;25.27;;;;;;;2.86;58.65;98870.75;5064216;28;20171;-71
2022/01/13 08:55:11;;;;;;;44.90;26.77;;;;;;;2.95;59.12;98885.06;5063851;28;20198;-72
2022/01/13 08:57:36;;;;;;;41.30;24.70;;;;;;;2.56;59.88;98872.84;5067408;28;20806;-70
2022/01/13 09:00:08;;;;;;;41.40;26.40;;;;;;;2.81;59.68;98875.25;5068401;28;20953;-71
2022/01/13 09:02:33;;;;;;;49.03;28.00;;;;;;;2.82;59.20;98870.94;5065655;28;20186;-70
2022/01/13 09:05:04;;;;;;;43.60;27.00;;;;;;;3.01;59.15;98871.84;5070338;28;20440;-70
2022/01/13 09:07:30;;;;;;;49.07;26.53;;;;;;;3.13;58.64;98860.16;5072113;28;20194;-71
2022/01/13 09:09:56;;;;;;;42.33;25.20;;;;;;;3.17;58.90;98863.44;5070561;28;20417;-71
2022/01/13 09:12:22;;;;;;;39.90;24.23;;;;;;;3.19;57.30;98866.81;5060094;28;20473;-71
2022/01/13 09:14:50;;;;;;;44.40;25.40;;;;;;;3.15;57.70;98860.06;5069670;28;20974;-71
2022/01/13 09:17:22;;;;;;;44.47;24.40;;;;;;;3.22;57.45;98864.94;5067076;28;20506;-71
2022/01/13 09:19:49;;;;;;;47.93;26.40;;;;;;;3.32;57.35;98860.22;5070816;28;20896;-71
2022/01/13 09:22:14;;;;;;;38.60;24.50;;;;;;;3.30;57.42;98853.38;5067961;28;20409;-70
2022/01/13 09:24:40;;;;;;;44.23;26.13;;;;;;;3.23;57.19;98853.66;5070852;28;20460;-71
2022/01/13 09:27:07;;;;;;;43.90;25.00;;;;;;;2.81;58.06;98851.13;5069578;28;20198;-71
2022/01/13 09:29:33;;;;;;;42.03;25.13;;;;;;;2.90;56.93;98848.97;5063229;28;20179;-69
2022/01/13 09:31:58;;;;;;;47.57;26.97;;;;;;;3.00;57.37;98846.84;5070329;28;20417;-70
2022/01/13 09:34:24;;;;;;;49.20;28.30;;;;;;;3.21;56.86;98845.09;5068285;28;20442;-69
2022/01/13 09:36:50;;;;;;;50.10;26.13;;;;;;;3.18;57.21;98855.59;5070476;28;20536;-70
2022/01/13 09:39:15;;;;;;;44.50;24.40;;;;;;;3.20;57.13;98853.78;5068011;28;20666;-71
2022/01/13 09:41:43;;;;;;;40.67;23.40;;;;;;;3.24;56.87;98846.72;5069483;28;20192;-71
2022/01/13 09:44:10;;;;;;;35.53;23.07;;;;;;;3.20;57.00;98842.59;5067130;28;20178;-71
2022/01/13 09:46:36;;;;;;;40.87;21.97;;;;;;;3.41;56.60;98848.56;5051574;28;20464;-71
2022/01/13 09:49:04;;;;;;;30.27;18.40;;;;;;;3.16;57.71;98846.22;5071583;28;20421;-72
2022/01/13 09:51:35;;;;;;;34.33;20.40;;;;;;;3.43;57.07;98841.56;5074188;28;20721;-72
2022/01/13 09:54:01;;;;;;;30.20;19.80;;;;;;;3.17;58.11;98840.94;5073045;28;20442;-70
2022/01/13 09:56:26;;;;;;;27.33;18.10;;;;;;;3.63;57.10;98842.47;5073930;28;20424;-71
2022/01/13 09:58:52;;;;;;;29.97;18.67;;;;;;;3.78;56.55;98839.16;5073160;28;20269;-70
2022/01/13 10:01:18;;;;;;;36.17;21.47;;;;;;;3.95;55.92;98837.56;5074216;28;20181;-70
2022/01/13 10:03:43;;;;;;;34.00;21.10;;;;;;;3.92;56.05;98840.28;5073863;28;20175;-72
2022/01/13 10:06:15;;;;;;;32.73;21.20;;;;;;;3.89;55.77;98848.22;5065251;28;20191;-72
2022/01/13 10:08:55;;;;;;;33.53;20.93;;;;;;;3.96;55.53;98847.03;5073309;28;20227;-71
2022/01/13 10:11:39;;;;;;;30.70;18.43;;;;;;;3.92;54.88;98842.88;5073145;28;20421;-70
2022/01/13 10:16:55;;;;;;;28.77;18.57;;;;;;;4.33;54.61;98839.28;5071510;28;20455;-70
2022/01/13 10:19:25;;;;;;;28.50;18.63;;;;;;;4.30;54.88;98832.47;5071862;28;20409;-72
2022/01/13 10:21:56;;;;;;;28.53;19.00;;;;;;;4.38;54.17;98829.50;5069937;28;20830;-70
2022/01/13 10:24:24;;;;;;;29.50;18.83;;;;;;;4.55;54.40;98832.16;5073196;28;20754;-72
2022/01/13 10:27:01;;;;;;;32.37;18.50;;;;;;;4.60;54.12;98834.50;5073084;28;20444;-70
2022/01/13 10:29:41;;;;;;;45.73;25.90;;;;;;;4.75;53.38;98819.94;5072262;28;20412;-70
2022/01/13 10:32:09;;;;;;;33.37;19.80;;;;;;;4.82;52.72;98818.72;5071780;28;20434;-71
2022/01/13 10:34:37;;;;;;;37.73;21.17;;;;;;;4.90;52.82;98821.75;5072738;28;20433;-72
2022/01/13 10:37:33;;;;;;;31.77;21.10;;;;;;;4.65;53.38;98829.94;5063396;28;20430;-71
2022/01/13 10:40:10;;;;;;;32.60;21.17;;;;;;;4.74;53.35;98824.28;5072836;28;20535;-71
2022/01/13 10:45:11;;;;;;;36.63;21.13;;;;;;;4.59;54.37;98836.28;5067181;28;20438;-71
2022/01/13 10:47:40;;;;;;;34.13;19.60;;;;;;;4.63;53.43;98834.38;5070698;28;20514;-71
2022/01/13 10:50:13;;;;;;;33.20;21.80;;;;;;;4.28;55.17;98832.56;5072599;28;20416;-70
2022/01/13 10:52:40;;;;;;;42.33;23.90;;;;;;;4.60;53.74;98835.34;5072673;28;20427;-71
2022/01/13 10:55:07;;;;;;;33.63;19.97;;;;;;;4.72;53.66;98831.31;5072754;28;20935;-71
2022/01/13 10:57:33;;;;;;;32.27;20.53;;;;;;;4.66;54.07;98834.22;5073307;28;20413;-72
2022/01/13 11:00:00;;;;;;;35.10;21.47;;;;;;;4.76;54.20;98827.66;5070558;28;20417;-72
2022/01/13 11:02:26;;;;;;;33.90;21.40;;;;;;;4.98;53.32;98831.78;5065875;28;20425;-72
2022/01/13 11:04:52;;;;;;;31.47;18.60;;;;;;;5.17;53.09;98831.69;5071668;28;20448;-70
2022/01/13 11:07:19;;;;;;;31.63;20.20;;;;;;;5.02;52.26;98833.31;5073806;28;20608;-70
2022/01/13 11:09:58;;;;;;;32.37;19.60;;;;;;;5.11;52.55;98831.16;5072814;28;20887;-71
2022/01/13 11:12:44;;;;;;;31.53;19.80;;;;;;;5.32;52.39;98824.03;5072208;28;20499;-71
2022/01/13 11:15:14;;;;;;;28.77;19.10;;;;;;;5.32;52.21;98824.03;5067190;28;20805;-71
2022/01/13 11:17:43;;;;;;;37.57;24.47;;;;;;;5.43;51.86;98826.03;5065251;28;20500;-70
2022/01/13 11:20:20;;;;;;;34.60;23.03;;;;;;;5.49;51.84;98831.78;5072630;28;20427;-71
2022/01/13 11:22:47;;;;;;;28.33;20.03;;;;;;;5.57;51.55;98830.53;5063264;28;20505;-70
2022/01/13 11:25:15;;;;;;;35.60;19.90;;;;;;;5.63;51.53;98831.06;5070229;28;20539;-71
2022/01/13 11:27:42;;;;;;;29.17;18.60;;;;;;;5.69;51.06;98828.13;5070946;28;20796;-70
2022/01/13 11:30:20;;;;;;;29.70;20.23;;;;;;;5.81;50.79;98834.44;5071914;28;20425;-71
2022/01/13 11:32:47;;;;;;;33.93;20.00;;;;;;;5.80;50.59;98837.09;5073086;28;20429;-70
2022/01/13 11:35:21;;;;;;;39.90;20.63;;;;;;;5.81;50.93;98837.03;5070342;28;20487;-71
2022/01/13 11:37:47;;;;;;;29.90;18.23;;;;;;;6.01;50.72;98837.75;5067876;28;20482;-70
2022/01/13 11:40:37;;;;;;;33.80;19.57;;;;;;;6.13;50.57;98838.84;5070583;28;20426;-71
2022/01/13 11:43:05;;;;;;;30.83;20.27;;;;;;;5.51;51.06;98839.50;5072524;28;20420;-71
2022/01/13 11:45:38;;;;;;;27.40;18.90;;;;;;;5.40;52.07;98836.63;5070401;28;20724;-72
2022/01/13 11:48:25;;;;;;;31.90;19.53;;;;;;;5.55;51.77;98843.59;5067806;28;20471;-70
2022/01/13 11:51:13;;;;;;;26.27;16.93;;;;;;;5.77;52.03;98845.09;5072444;28;20420;-71
2022/01/13 11:53:41;;;;;;;31.43;18.80;;;;;;;5.83;51.25;98840.41;5067147;28;20431;-71